sensor_id;sensor_type;location;lat;lon;timestamp;P1;durP1;ratioP1;P2;durP2;ratioP2
3704;SDS011;1868;48.918;9.438;2024-02-26T00:00:16;1.70;;;0.83;;
3704;SDS011;1868;48.918;9.438;2024-02-26T00:02:45;1.33;;;1.23;;
3704;SDS011;1868;48.918;9.438;2024-02-26T00:05:14;1.27;;;1.20;;
3704;SDS011;1868;48.918;9.438;2024-02-26T00:07:43;1.07;;;0.90;;
3704;SDS011;1868;48.918;9.438;2024-02-26T00:10:12;0.60;;;0.60;;
3704;SDS011;1868;48.918;9.438;2024-02-26T00:12:42;1.57;;;1.27;;
3704;SDS011;1868;48.918;9.438;2024-02-26T00:15:13;1.60;;;0.90;;
3704;SDS011;1868;48.918;9.438;2024-02-26T00:17:42;2.60;;;0.90;;
3704;SDS011;1868;48.918;9.438;2024-02-26T00:20:12;4.20;;;1.20;;
3704;SDS011;1868;48.918;9.438;2024-02-26T00:22:41;1.37;;;1.10;;
3704;SDS011;1868;48.918;9.438;2024-02-26T00:25:10;0.87;;;0.80;;
3704;SDS011;1868;48.918;9.438;2024-02-26T00:27:40;0.80;;;0.80;;
3704;SDS011;1868;48.918;9.438;2024-02-26T00:30:10;0.70;;;0.70;;
3704;SDS011;1868;48.918;9.438;2024-02-26T00:32:41;1.57;;;1.10;;
3704;SDS011;1868;48.918;9.438;2024-02-26T00:35:10;1.20;;;0.90;;
3704;SDS011;1868;48.918;9.438;2024-02-26T00:37:39;1.10;;;1.10;;
3704;SDS011;1868;48.918;9.438;2024-02-26T00:40:10;1.60;;;1.00;;
3704;SDS011;1868;48.918;9.438;2024-02-26T00:42:39;1.20;;;1.10;;
3704;SDS011;1868;48.918;9.438;2024-02-26T00:45:12;1.10;;;1.10;;
3704;SDS011;1868;48.918;9.438;2024-02-26T00:47:44;1.50;;;1.40;;
3704;SDS011;1868;48.918;9.438;2024-02-26T00:50:14;1.23;;;1.00;;
3704;SDS011;1868;48.918;9.438;2024-02-26T00:52:43;1.13;;;1.00;;
3704;SDS011;1868;48.918;9.438;2024-02-26T00:55:13;1.33;;;1.20;;
3704;SDS011;1868;48.918;9.438;2024-02-26T00:57:44;2.43;;;0.83;;
3704;SDS011;1868;48.918;9.438;2024-02-26T01:00:15;2.07;;;1.10;;
3704;SDS011;1868;48.918;9.438;2024-02-26T01:02:47;2.10;;;1.10;;
3704;SDS011;1868;48.918;9.438;2024-02-26T01:05:15;1.17;;;1.17;;
3704;SDS011;1868;48.918;9.438;2024-02-26T01:07:44;1.30;;;0.90;;
3704;SDS011;1868;48.918;9.438;2024-02-26T01:10:13;1.23;;;0.90;;
3704;SDS011;1868;48.918;9.438;2024-02-26T01:12:42;1.83;;;1.10;;
3704;SDS011;1868;48.918;9.438;2024-02-26T01:15:11;1.33;;;1.23;;
3704;SDS011;1868;48.918;9.438;2024-02-26T01:17:41;1.90;;;1.37;;
3704;SDS011;1868;48.918;9.438;2024-02-26T01:20:12;1.20;;;1.07;;
3704;SDS011;1868;48.918;9.438;2024-02-26T01:22:41;2.83;;;1.13;;
3704;SDS011;1868;48.918;9.438;2024-02-26T01:25:10;1.53;;;0.93;;
3704;SDS011;1868;48.918;9.438;2024-02-26T01:27:40;0.80;;;0.80;;
3704;SDS011;1868;48.918;9.438;2024-02-26T01:30:12;2.73;;;1.20;;
3704;SDS011;1868;48.918;9.438;2024-02-26T01:32:43;1.10;;;1.03;;
3704;SDS011;1868;48.918;9.438;2024-02-26T01:35:13;1.10;;;1.00;;
3704;SDS011;1868;48.918;9.438;2024-02-26T01:37:42;1.33;;;1.23;;
3704;SDS011;1868;48.918;9.438;2024-02-26T01:40:11;0.83;;;0.83;;
3704;SDS011;1868;48.918;9.438;2024-02-26T01:42:44;1.80;;;1.20;;
3704;SDS011;1868;48.918;9.438;2024-02-26T01:45:13;0.50;;;0.50;;
3704;SDS011;1868;48.918;9.438;2024-02-26T01:47:49;1.47;;;1.37;;
3704;SDS011;1868;48.918;9.438;2024-02-26T01:50:21;0.80;;;0.80;;
3704;SDS011;1868;48.918;9.438;2024-02-26T01:52:51;0.97;;;0.97;;
3704;SDS011;1868;48.918;9.438;2024-02-26T01:55:20;1.40;;;1.30;;
3704;SDS011;1868;48.918;9.438;2024-02-26T01:57:51;1.37;;;1.27;;
3704;SDS011;1868;48.918;9.438;2024-02-26T02:00:21;1.17;;;1.10;;
3704;SDS011;1868;48.918;9.438;2024-02-26T02:02:51;2.10;;;0.80;;
3704;SDS011;1868;48.918;9.438;2024-02-26T02:05:23;1.27;;;0.87;;
3704;SDS011;1868;48.918;9.438;2024-02-26T02:07:53;1.07;;;1.07;;
3704;SDS011;1868;48.918;9.438;2024-02-26T02:10:22;1.90;;;1.00;;
3704;SDS011;1868;48.918;9.438;2024-02-26T02:12:52;1.00;;;1.00;;
3704;SDS011;1868;48.918;9.438;2024-02-26T02:15:21;0.93;;;0.73;;
3704;SDS011;1868;48.918;9.438;2024-02-26T02:17:50;0.93;;;0.80;;
3704;SDS011;1868;48.918;9.438;2024-02-26T02:20:24;1.03;;;0.93;;
3704;SDS011;1868;48.918;9.438;2024-02-26T02:22:54;2.53;;;1.37;;
3704;SDS011;1868;48.918;9.438;2024-02-26T02:25:23;1.30;;;1.20;;
3704;SDS011;1868;48.918;9.438;2024-02-26T02:27:52;1.40;;;1.17;;
3704;SDS011;1868;48.918;9.438;2024-02-26T02:30:22;1.43;;;1.30;;
3704;SDS011;1868;48.918;9.438;2024-02-26T02:32:55;0.80;;;0.80;;
3704;SDS011;1868;48.918;9.438;2024-02-26T02:35:27;1.20;;;1.07;;
3704;SDS011;1868;48.918;9.438;2024-02-26T02:37:56;1.13;;;1.03;;
3704;SDS011;1868;48.918;9.438;2024-02-26T02:40:25;0.80;;;0.80;;
3704;SDS011;1868;48.918;9.438;2024-02-26T02:42:53;4.50;;;0.93;;
3704;SDS011;1868;48.918;9.438;2024-02-26T02:45:22;1.03;;;0.87;;
3704;SDS011;1868;48.918;9.438;2024-02-26T02:47:51;1.33;;;0.93;;
3704;SDS011;1868;48.918;9.438;2024-02-26T02:50:20;1.67;;;1.10;;
3704;SDS011;1868;48.918;9.438;2024-02-26T02:52:50;1.60;;;1.07;;
3704;SDS011;1868;48.918;9.438;2024-02-26T02:55:20;1.00;;;1.00;;
3704;SDS011;1868;48.918;9.438;2024-02-26T02:57:51;3.40;;;1.30;;
3704;SDS011;1868;48.918;9.438;2024-02-26T03:00:20;1.57;;;0.90;;
3704;SDS011;1868;48.918;9.438;2024-02-26T03:02:50;0.80;;;0.80;;
3704;SDS011;1868;48.918;9.438;2024-02-26T03:05:19;0.90;;;0.90;;
3704;SDS011;1868;48.918;9.438;2024-02-26T03:07:48;1.20;;;1.20;;
3704;SDS011;1868;48.918;9.438;2024-02-26T03:10:18;1.17;;;0.90;;
3704;SDS011;1868;48.918;9.438;2024-02-26T03:12:47;0.67;;;0.60;;
3704;SDS011;1868;48.918;9.438;2024-02-26T03:15:16;0.80;;;0.80;;
3704;SDS011;1868;48.918;9.438;2024-02-26T03:17:46;1.40;;;1.30;;
3704;SDS011;1868;48.918;9.438;2024-02-26T03:20:15;1.10;;;1.00;;
3704;SDS011;1868;48.918;9.438;2024-02-26T03:22:46;0.73;;;0.73;;
3704;SDS011;1868;48.918;9.438;2024-02-26T03:25:15;0.90;;;0.90;;
3704;SDS011;1868;48.918;9.438;2024-02-26T03:27:46;3.60;;;1.07;;
3704;SDS011;1868;48.918;9.438;2024-02-26T03:30:15;1.53;;;1.43;;
3704;SDS011;1868;48.918;9.438;2024-02-26T03:32:44;2.77;;;0.90;;
3704;SDS011;1868;48.918;9.438;2024-02-26T03:35:14;1.60;;;1.30;;
3704;SDS011;1868;48.918;9.438;2024-02-26T03:37:42;1.53;;;1.27;;
3704;SDS011;1868;48.918;9.438;2024-02-26T03:40:12;0.93;;;0.90;;
3704;SDS011;1868;48.918;9.438;2024-02-26T03:42:44;1.30;;;1.20;;
3704;SDS011;1868;48.918;9.438;2024-02-26T03:45:13;1.23;;;1.23;;
3704;SDS011;1868;48.918;9.438;2024-02-26T03:47:42;1.73;;;1.20;;
3704;SDS011;1868;48.918;9.438;2024-02-26T03:50:11;1.90;;;1.00;;
3704;SDS011;1868;48.918;9.438;2024-02-26T03:52:40;1.40;;;0.77;;
3704;SDS011;1868;48.918;9.438;2024-02-26T03:55:09;1.50;;;1.40;;
3704;SDS011;1868;48.918;9.438;2024-02-26T03:57:38;1.27;;;1.17;;
3704;SDS011;1868;48.918;9.438;2024-02-26T04:00:09;1.43;;;1.00;;
3704;SDS011;1868;48.918;9.438;2024-02-26T04:02:40;2.80;;;1.47;;
3704;SDS011;1868;48.918;9.438;2024-02-26T04:05:09;1.50;;;1.40;;
3704;SDS011;1868;48.918;9.438;2024-02-26T04:07:38;1.77;;;1.30;;
3704;SDS011;1868;48.918;9.438;2024-02-26T04:10:10;2.00;;;1.70;;
3704;SDS011;1868;48.918;9.438;2024-02-26T04:12:40;2.10;;;1.83;;
3704;SDS011;1868;48.918;9.438;2024-02-26T04:15:11;1.50;;;1.40;;
3704;SDS011;1868;48.918;9.438;2024-02-26T04:17:40;1.40;;;1.33;;
3704;SDS011;1868;48.918;9.438;2024-02-26T04:20:13;1.30;;;1.17;;
3704;SDS011;1868;48.918;9.438;2024-02-26T04:22:43;1.73;;;1.40;;
3704;SDS011;1868;48.918;9.438;2024-02-26T04:25:14;1.47;;;1.27;;
3704;SDS011;1868;48.918;9.438;2024-02-26T04:27:43;2.73;;;1.47;;
3704;SDS011;1868;48.918;9.438;2024-02-26T04:30:16;1.30;;;1.20;;
3704;SDS011;1868;48.918;9.438;2024-02-26T04:32:45;1.53;;;1.37;;
3704;SDS011;1868;48.918;9.438;2024-02-26T04:35:14;1.60;;;1.50;;
3704;SDS011;1868;48.918;9.438;2024-02-26T04:37:43;1.10;;;1.10;;
3704;SDS011;1868;48.918;9.438;2024-02-26T04:40:12;2.20;;;1.63;;
3704;SDS011;1868;48.918;9.438;2024-02-26T04:42:41;1.03;;;1.03;;
3704;SDS011;1868;48.918;9.438;2024-02-26T04:45:10;1.53;;;1.30;;
3704;SDS011;1868;48.918;9.438;2024-02-26T04:47:40;1.20;;;1.10;;
3704;SDS011;1868;48.918;9.438;2024-02-26T04:50:10;1.07;;;0.90;;
3704;SDS011;1868;48.918;9.438;2024-02-26T04:52:38;1.27;;;1.03;;
3704;SDS011;1868;48.918;9.438;2024-02-26T04:55:07;1.83;;;1.73;;
3704;SDS011;1868;48.918;9.438;2024-02-26T04:57:36;2.97;;;1.60;;
3704;SDS011;1868;48.918;9.438;2024-02-26T05:00:06;1.93;;;1.40;;
3704;SDS011;1868;48.918;9.438;2024-02-26T05:02:36;1.80;;;1.70;;
3704;SDS011;1868;48.918;9.438;2024-02-26T05:05:07;2.70;;;1.70;;
3704;SDS011;1868;48.918;9.438;2024-02-26T05:07:39;3.40;;;2.00;;
3704;SDS011;1868;48.918;9.438;2024-02-26T05:10:09;1.57;;;1.47;;
3704;SDS011;1868;48.918;9.438;2024-02-26T05:12:39;1.27;;;1.17;;
3704;SDS011;1868;48.918;9.438;2024-02-26T05:15:09;1.80;;;1.60;;
3704;SDS011;1868;48.918;9.438;2024-02-26T05:17:45;1.40;;;1.30;;
3704;SDS011;1868;48.918;9.438;2024-02-26T05:20:15;1.27;;;1.27;;
3704;SDS011;1868;48.918;9.438;2024-02-26T05:22:44;0.90;;;0.90;;
3704;SDS011;1868;48.918;9.438;2024-02-26T05:25:14;1.13;;;1.13;;
3704;SDS011;1868;48.918;9.438;2024-02-26T05:27:44;1.53;;;0.97;;
3704;SDS011;1868;48.918;9.438;2024-02-26T05:30:13;1.30;;;1.20;;
3704;SDS011;1868;48.918;9.438;2024-02-26T05:32:43;0.70;;;0.70;;
3704;SDS011;1868;48.918;9.438;2024-02-26T05:35:12;1.30;;;1.20;;
3704;SDS011;1868;48.918;9.438;2024-02-26T05:37:43;1.43;;;0.90;;
3704;SDS011;1868;48.918;9.438;2024-02-26T05:40:12;0.90;;;0.90;;
3704;SDS011;1868;48.918;9.438;2024-02-26T05:42:42;2.57;;;1.63;;
3704;SDS011;1868;48.918;9.438;2024-02-26T05:45:11;0.73;;;0.73;;
3704;SDS011;1868;48.918;9.438;2024-02-26T05:47:44;1.57;;;1.20;;
3704;SDS011;1868;48.918;9.438;2024-02-26T05:50:13;0.90;;;0.90;;
3704;SDS011;1868;48.918;9.438;2024-02-26T05:52:44;0.90;;;0.90;;
3704;SDS011;1868;48.918;9.438;2024-02-26T05:55:12;1.43;;;1.07;;
3704;SDS011;1868;48.918;9.438;2024-02-26T05:57:41;1.00;;;1.00;;
3704;SDS011;1868;48.918;9.438;2024-02-26T06:00:10;1.33;;;1.10;;
3704;SDS011;1868;48.918;9.438;2024-02-26T06:02:41;2.07;;;1.40;;
3704;SDS011;1868;48.918;9.438;2024-02-26T06:05:11;1.40;;;1.30;;
3704;SDS011;1868;48.918;9.438;2024-02-26T06:07:40;1.00;;;1.00;;
3704;SDS011;1868;48.918;9.438;2024-02-26T06:10:12;2.30;;;1.90;;
3704;SDS011;1868;48.918;9.438;2024-02-26T06:12:42;1.33;;;1.07;;
3704;SDS011;1868;48.918;9.438;2024-02-26T06:15:11;1.27;;;1.20;;
3704;SDS011;1868;48.918;9.438;2024-02-26T06:17:41;1.40;;;1.30;;
3704;SDS011;1868;48.918;9.438;2024-02-26T06:20:10;1.23;;;1.23;;
3704;SDS011;1868;48.918;9.438;2024-02-26T06:22:39;4.73;;;1.50;;
3704;SDS011;1868;48.918;9.438;2024-02-26T06:25:09;1.60;;;1.50;;
3704;SDS011;1868;48.918;9.438;2024-02-26T06:27:40;2.83;;;1.63;;
3704;SDS011;1868;48.918;9.438;2024-02-26T06:30:09;0.97;;;0.97;;
3704;SDS011;1868;48.918;9.438;2024-02-26T06:32:39;1.30;;;1.20;;
3704;SDS011;1868;48.918;9.438;2024-02-26T06:35:08;2.57;;;1.77;;
3704;SDS011;1868;48.918;9.438;2024-02-26T06:37:38;1.20;;;1.13;;
3704;SDS011;1868;48.918;9.438;2024-02-26T06:40:07;1.40;;;1.30;;
3704;SDS011;1868;48.918;9.438;2024-02-26T06:42:38;1.17;;;1.07;;
3704;SDS011;1868;48.918;9.438;2024-02-26T06:45:07;1.10;;;1.10;;
3704;SDS011;1868;48.918;9.438;2024-02-26T06:47:36;2.13;;;1.73;;
3704;SDS011;1868;48.918;9.438;2024-02-26T06:50:07;1.10;;;1.10;;
3704;SDS011;1868;48.918;9.438;2024-02-26T06:52:37;1.70;;;1.40;;
3704;SDS011;1868;48.918;9.438;2024-02-26T06:55:05;2.80;;;1.60;;
3704;SDS011;1868;48.918;9.438;2024-02-26T06:57:35;1.63;;;1.53;;
3704;SDS011;1868;48.918;9.438;2024-02-26T07:00:05;1.30;;;1.20;;
3704;SDS011;1868;48.918;9.438;2024-02-26T07:02:40;1.97;;;1.80;;
3704;SDS011;1868;48.918;9.438;2024-02-26T07:05:11;1.30;;;1.20;;
3704;SDS011;1868;48.918;9.438;2024-02-26T07:07:41;2.83;;;1.63;;
3704;SDS011;1868;48.918;9.438;2024-02-26T07:10:09;4.37;;;2.60;;
3704;SDS011;1868;48.918;9.438;2024-02-26T07:12:39;1.83;;;1.30;;
3704;SDS011;1868;48.918;9.438;2024-02-26T07:15:10;1.57;;;1.47;;
3704;SDS011;1868;48.918;9.438;2024-02-26T07:17:39;1.93;;;1.53;;
3704;SDS011;1868;48.918;9.438;2024-02-26T07:20:13;2.00;;;1.80;;
3704;SDS011;1868;48.918;9.438;2024-02-26T07:22:44;3.17;;;2.30;;
3704;SDS011;1868;48.918;9.438;2024-02-26T07:25:13;2.10;;;2.00;;
3704;SDS011;1868;48.918;9.438;2024-02-26T07:27:43;1.77;;;1.67;;
3704;SDS011;1868;48.918;9.438;2024-02-26T07:30:14;1.63;;;1.57;;
3704;SDS011;1868;48.918;9.438;2024-02-26T07:32:43;1.70;;;1.60;;
3704;SDS011;1868;48.918;9.438;2024-02-26T07:35:16;1.87;;;1.77;;
3704;SDS011;1868;48.918;9.438;2024-02-26T07:37:47;5.50;;;2.20;;
3704;SDS011;1868;48.918;9.438;2024-02-26T07:40:16;7.30;;;1.50;;
3704;SDS011;1868;48.918;9.438;2024-02-26T07:42:45;2.50;;;1.90;;
3704;SDS011;1868;48.918;9.438;2024-02-26T07:45:15;4.10;;;1.90;;
3704;SDS011;1868;48.918;9.438;2024-02-26T07:47:46;1.83;;;1.73;;
3704;SDS011;1868;48.918;9.438;2024-02-26T07:50:15;2.23;;;1.80;;
3704;SDS011;1868;48.918;9.438;2024-02-26T07:52:44;1.63;;;1.50;;
3704;SDS011;1868;48.918;9.438;2024-02-26T07:55:13;2.93;;;1.93;;
3704;SDS011;1868;48.918;9.438;2024-02-26T07:57:41;2.73;;;2.17;;
3704;SDS011;1868;48.918;9.438;2024-02-26T08:00:13;2.37;;;2.20;;
3704;SDS011;1868;48.918;9.438;2024-02-26T08:02:45;2.10;;;2.00;;
3704;SDS011;1868;48.918;9.438;2024-02-26T08:05:15;3.00;;;2.13;;
3704;SDS011;1868;48.918;9.438;2024-02-26T08:07:44;2.53;;;2.33;;
3704;SDS011;1868;48.918;9.438;2024-02-26T08:10:15;2.80;;;2.60;;
3704;SDS011;1868;48.918;9.438;2024-02-26T08:12:45;2.40;;;2.20;;
3704;SDS011;1868;48.918;9.438;2024-02-26T08:15:20;6.83;;;3.60;;
3704;SDS011;1868;48.918;9.438;2024-02-26T08:17:49;2.50;;;2.30;;
3704;SDS011;1868;48.918;9.438;2024-02-26T08:20:18;2.10;;;2.00;;
3704;SDS011;1868;48.918;9.438;2024-02-26T08:22:48;3.33;;;2.73;;
3704;SDS011;1868;48.918;9.438;2024-02-26T08:25:18;3.10;;;2.13;;
3704;SDS011;1868;48.918;9.438;2024-02-26T08:27:46;3.30;;;2.50;;
3704;SDS011;1868;48.918;9.438;2024-02-26T08:30:15;6.73;;;4.90;;
3704;SDS011;1868;48.918;9.438;2024-02-26T08:32:47;6.87;;;5.00;;
3704;SDS011;1868;48.918;9.438;2024-02-26T08:35:18;4.30;;;3.00;;
3704;SDS011;1868;48.918;9.438;2024-02-26T08:37:47;2.63;;;2.43;;
3704;SDS011;1868;48.918;9.438;2024-02-26T08:40:16;2.57;;;2.10;;
3704;SDS011;1868;48.918;9.438;2024-02-26T08:42:46;4.53;;;3.13;;
3704;SDS011;1868;48.918;9.438;2024-02-26T08:45:15;5.60;;;3.27;;
3704;SDS011;1868;48.918;9.438;2024-02-26T08:47:44;4.37;;;2.47;;
3704;SDS011;1868;48.918;9.438;2024-02-26T08:50:18;3.40;;;3.10;;
3704;SDS011;1868;48.918;9.438;2024-02-26T08:52:47;6.23;;;3.37;;
3704;SDS011;1868;48.918;9.438;2024-02-26T08:55:17;3.23;;;2.90;;
3704;SDS011;1868;48.918;9.438;2024-02-26T08:57:47;3.70;;;2.30;;
3704;SDS011;1868;48.918;9.438;2024-02-26T09:00:16;2.27;;;1.90;;
3704;SDS011;1868;48.918;9.438;2024-02-26T09:02:47;2.10;;;1.90;;
3704;SDS011;1868;48.918;9.438;2024-02-26T09:05:19;2.23;;;2.03;;
3704;SDS011;1868;48.918;9.438;2024-02-26T09:07:47;1.87;;;1.70;;
3704;SDS011;1868;48.918;9.438;2024-02-26T09:10:18;1.80;;;1.70;;
3704;SDS011;1868;48.918;9.438;2024-02-26T09:12:47;2.10;;;2.00;;
3704;SDS011;1868;48.918;9.438;2024-02-26T09:15:17;2.10;;;1.90;;
3704;SDS011;1868;48.918;9.438;2024-02-26T09:17:46;2.30;;;2.10;;
3704;SDS011;1868;48.918;9.438;2024-02-26T09:20:18;1.87;;;1.70;;
3704;SDS011;1868;48.918;9.438;2024-02-26T09:22:48;2.30;;;2.03;;
3704;SDS011;1868;48.918;9.438;2024-02-26T09:25:17;1.97;;;1.67;;
3704;SDS011;1868;48.918;9.438;2024-02-26T09:27:46;1.80;;;1.70;;
3704;SDS011;1868;48.918;9.438;2024-02-26T09:30:15;1.93;;;1.83;;
3704;SDS011;1868;48.918;9.438;2024-02-26T09:32:46;1.70;;;1.60;;
3704;SDS011;1868;48.918;9.438;2024-02-26T09:35:16;2.03;;;1.73;;
3704;SDS011;1868;48.918;9.438;2024-02-26T09:37:48;1.90;;;1.70;;
3704;SDS011;1868;48.918;9.438;2024-02-26T09:40:17;2.27;;;2.10;;
3704;SDS011;1868;48.918;9.438;2024-02-26T09:42:45;1.97;;;1.80;;
3704;SDS011;1868;48.918;9.438;2024-02-26T09:45:17;2.13;;;1.93;;
3704;SDS011;1868;48.918;9.438;2024-02-26T09:47:47;3.00;;;1.70;;
3704;SDS011;1868;48.918;9.438;2024-02-26T09:50:18;2.70;;;2.00;;
3704;SDS011;1868;48.918;9.438;2024-02-26T09:52:51;2.37;;;2.17;;
3704;SDS011;1868;48.918;9.438;2024-02-26T09:55:20;2.00;;;1.80;;
3704;SDS011;1868;48.918;9.438;2024-02-26T09:57:50;2.60;;;2.20;;
3704;SDS011;1868;48.918;9.438;2024-02-26T10:00:21;2.23;;;2.03;;
3704;SDS011;1868;48.918;9.438;2024-02-26T10:02:50;2.47;;;2.27;;
3704;SDS011;1868;48.918;9.438;2024-02-26T10:05:22;3.20;;;2.67;;
3704;SDS011;1868;48.918;9.438;2024-02-26T10:07:52;2.40;;;2.00;;
3704;SDS011;1868;48.918;9.438;2024-02-26T10:10:23;2.43;;;1.97;;
3704;SDS011;1868;48.918;9.438;2024-02-26T10:12:54;2.00;;;1.90;;
3704;SDS011;1868;48.918;9.438;2024-02-26T10:15:22;2.50;;;2.30;;
3704;SDS011;1868;48.918;9.438;2024-02-26T10:17:51;2.60;;;2.40;;
3704;SDS011;1868;48.918;9.438;2024-02-26T10:20:23;4.20;;;2.07;;
3704;SDS011;1868;48.918;9.438;2024-02-26T10:22:53;2.67;;;2.10;;
3704;SDS011;1868;48.918;9.438;2024-02-26T10:25:24;2.70;;;2.50;;
3704;SDS011;1868;48.918;9.438;2024-02-26T10:27:53;2.33;;;2.00;;
3704;SDS011;1868;48.918;9.438;2024-02-26T10:30:22;2.60;;;2.20;;
3704;SDS011;1868;48.918;9.438;2024-02-26T10:32:53;3.57;;;2.73;;
3704;SDS011;1868;48.918;9.438;2024-02-26T10:35:24;2.97;;;2.77;;
3704;SDS011;1868;48.918;9.438;2024-02-26T10:37:55;2.10;;;1.90;;
3704;SDS011;1868;48.918;9.438;2024-02-26T10:40:26;1.90;;;1.60;;
3704;SDS011;1868;48.918;9.438;2024-02-26T10:42:54;2.33;;;2.13;;
3704;SDS011;1868;48.918;9.438;2024-02-26T10:45:23;1.80;;;1.70;;
3704;SDS011;1868;48.918;9.438;2024-02-26T10:47:52;8.20;;;5.70;;
3704;SDS011;1868;48.918;9.438;2024-02-26T10:50:22;9.70;;;7.00;;
3704;SDS011;1868;48.918;9.438;2024-02-26T10:52:52;4.30;;;3.47;;
3704;SDS011;1868;48.918;9.438;2024-02-26T10:55:23;2.93;;;2.73;;
3704;SDS011;1868;48.918;9.438;2024-02-26T10:57:53;2.83;;;2.57;;
3704;SDS011;1868;48.918;9.438;2024-02-26T11:00:23;2.90;;;1.60;;
3704;SDS011;1868;48.918;9.438;2024-02-26T11:02:53;3.17;;;1.60;;
3704;SDS011;1868;48.918;9.438;2024-02-26T11:05:26;0.93;;;0.93;;
3704;SDS011;1868;48.918;9.438;2024-02-26T11:07:56;1.30;;;1.20;;
3704;SDS011;1868;48.918;9.438;2024-02-26T11:10:25;0.90;;;0.90;;
3704;SDS011;1868;48.918;9.438;2024-02-26T11:12:57;2.07;;;0.97;;
3704;SDS011;1868;48.918;9.438;2024-02-26T11:15:32;0.70;;;0.70;;
3704;SDS011;1868;48.918;9.438;2024-02-26T11:18:05;0.90;;;0.90;;
3704;SDS011;1868;48.918;9.438;2024-02-26T11:20:39;0.80;;;0.80;;
3704;SDS011;1868;48.918;9.438;2024-02-26T11:23:09;1.87;;;1.00;;
3704;SDS011;1868;48.918;9.438;2024-02-26T11:25:38;0.80;;;0.80;;
3704;SDS011;1868;48.918;9.438;2024-02-26T11:28:08;0.80;;;0.80;;
3704;SDS011;1868;48.918;9.438;2024-02-26T11:30:42;0.60;;;0.60;;
3704;SDS011;1868;48.918;9.438;2024-02-26T11:33:15;0.77;;;0.60;;
3704;SDS011;1868;48.918;9.438;2024-02-26T11:35:46;1.00;;;1.00;;
3704;SDS011;1868;48.918;9.438;2024-02-26T11:38:19;0.93;;;0.80;;
3704;SDS011;1868;48.918;9.438;2024-02-26T11:40:49;4.70;;;0.80;;
3704;SDS011;1868;48.918;9.438;2024-02-26T11:43:23;0.97;;;0.97;;
3704;SDS011;1868;48.918;9.438;2024-02-26T11:46:25;0.60;;;0.60;;
3704;SDS011;1868;48.918;9.438;2024-02-26T11:48:58;0.63;;;0.63;;
3704;SDS011;1868;48.918;9.438;2024-02-26T11:51:34;0.93;;;0.93;;
3704;SDS011;1868;48.918;9.438;2024-02-26T11:54:03;1.43;;;0.90;;
3704;SDS011;1868;48.918;9.438;2024-02-26T11:56:33;0.60;;;0.50;;
3704;SDS011;1868;48.918;9.438;2024-02-26T11:59:03;0.80;;;0.80;;
3704;SDS011;1868;48.918;9.438;2024-02-26T12:01:41;0.70;;;0.70;;
3704;SDS011;1868;48.918;9.438;2024-02-26T12:04:12;0.83;;;0.83;;
3704;SDS011;1868;48.918;9.438;2024-02-26T12:06:47;0.87;;;0.70;;
3704;SDS011;1868;48.918;9.438;2024-02-26T12:09:31;0.83;;;0.70;;
3704;SDS011;1868;48.918;9.438;2024-02-26T12:12:04;0.70;;;0.70;;
3704;SDS011;1868;48.918;9.438;2024-02-26T12:14:50;2.20;;;0.93;;
3704;SDS011;1868;48.918;9.438;2024-02-26T12:17:21;0.70;;;0.70;;
3704;SDS011;1868;48.918;9.438;2024-02-26T12:19:51;0.83;;;0.83;;
3704;SDS011;1868;48.918;9.438;2024-02-26T12:22:26;0.73;;;0.70;;
3704;SDS011;1868;48.918;9.438;2024-02-26T12:24:58;0.67;;;0.67;;
3704;SDS011;1868;48.918;9.438;2024-02-26T12:27:27;1.83;;;0.90;;
3704;SDS011;1868;48.918;9.438;2024-02-26T12:29:56;1.87;;;0.70;;
3704;SDS011;1868;48.918;9.438;2024-02-26T12:32:25;0.40;;;0.40;;
3704;SDS011;1868;48.918;9.438;2024-02-26T12:34:54;0.60;;;0.60;;
3704;SDS011;1868;48.918;9.438;2024-02-26T12:37:24;0.47;;;0.47;;
3704;SDS011;1868;48.918;9.438;2024-02-26T12:39:53;0.70;;;0.70;;
3704;SDS011;1868;48.918;9.438;2024-02-26T12:42:22;0.80;;;0.80;;
3704;SDS011;1868;48.918;9.438;2024-02-26T12:44:51;0.80;;;0.80;;
3704;SDS011;1868;48.918;9.438;2024-02-26T12:47:21;0.70;;;0.70;;
3704;SDS011;1868;48.918;9.438;2024-02-26T12:49:49;0.70;;;0.70;;
3704;SDS011;1868;48.918;9.438;2024-02-26T12:52:20;0.70;;;0.53;;
3704;SDS011;1868;48.918;9.438;2024-02-26T12:54:51;0.50;;;0.50;;
3704;SDS011;1868;48.918;9.438;2024-02-26T12:57:20;0.50;;;0.50;;
3704;SDS011;1868;48.918;9.438;2024-02-26T12:59:50;2.03;;;0.80;;
3704;SDS011;1868;48.918;9.438;2024-02-26T13:02:19;0.90;;;0.50;;
3704;SDS011;1868;48.918;9.438;2024-02-26T13:04:49;0.50;;;0.50;;
3704;SDS011;1868;48.918;9.438;2024-02-26T13:07:19;0.90;;;0.90;;
3704;SDS011;1868;48.918;9.438;2024-02-26T13:09:49;1.40;;;1.10;;
3704;SDS011;1868;48.918;9.438;2024-02-26T13:12:19;1.63;;;0.70;;
3704;SDS011;1868;48.918;9.438;2024-02-26T13:14:48;0.63;;;0.63;;
3704;SDS011;1868;48.918;9.438;2024-02-26T13:17:28;0.57;;;0.50;;
3704;SDS011;1868;48.918;9.438;2024-02-26T13:20:00;0.50;;;0.50;;
3704;SDS011;1868;48.918;9.438;2024-02-26T13:22:32;0.77;;;0.73;;
3704;SDS011;1868;48.918;9.438;2024-02-26T13:25:01;1.10;;;0.60;;
3704;SDS011;1868;48.918;9.438;2024-02-26T13:27:32;0.83;;;0.80;;
3704;SDS011;1868;48.918;9.438;2024-02-26T13:30:05;0.57;;;0.57;;
3704;SDS011;1868;48.918;9.438;2024-02-26T13:32:39;0.77;;;0.77;;
3704;SDS011;1868;48.918;9.438;2024-02-26T13:35:11;0.73;;;0.73;;
3704;SDS011;1868;48.918;9.438;2024-02-26T13:37:41;0.60;;;0.60;;
3704;SDS011;1868;48.918;9.438;2024-02-26T13:40:10;0.40;;;0.40;;
3704;SDS011;1868;48.918;9.438;2024-02-26T13:42:42;0.67;;;0.67;;
3704;SDS011;1868;48.918;9.438;2024-02-26T13:45:11;0.70;;;0.70;;
3704;SDS011;1868;48.918;9.438;2024-02-26T13:47:40;1.00;;;0.80;;
3704;SDS011;1868;48.918;9.438;2024-02-26T13:50:10;0.80;;;0.80;;
3704;SDS011;1868;48.918;9.438;2024-02-26T13:52:39;4.63;;;1.10;;
3704;SDS011;1868;48.918;9.438;2024-02-26T13:55:08;0.80;;;0.80;;
3704;SDS011;1868;48.918;9.438;2024-02-26T13:57:36;0.60;;;0.60;;
3704;SDS011;1868;48.918;9.438;2024-02-26T14:00:08;0.80;;;0.80;;
3704;SDS011;1868;48.918;9.438;2024-02-26T14:02:39;1.20;;;1.03;;
3704;SDS011;1868;48.918;9.438;2024-02-26T14:05:08;1.17;;;0.80;;
3704;SDS011;1868;48.918;9.438;2024-02-26T14:07:38;0.83;;;0.80;;
3704;SDS011;1868;48.918;9.438;2024-02-26T14:10:08;0.90;;;0.90;;
3704;SDS011;1868;48.918;9.438;2024-02-26T14:12:41;3.03;;;1.10;;
3704;SDS011;1868;48.918;9.438;2024-02-26T14:15:11;1.00;;;0.90;;
3704;SDS011;1868;48.918;9.438;2024-02-26T14:17:40;0.93;;;0.93;;
3704;SDS011;1868;48.918;9.438;2024-02-26T14:20:10;1.07;;;0.83;;
3704;SDS011;1868;48.918;9.438;2024-02-26T14:22:40;1.23;;;1.13;;
3704;SDS011;1868;48.918;9.438;2024-02-26T14:25:08;2.17;;;1.20;;
3704;SDS011;1868;48.918;9.438;2024-02-26T14:27:37;0.97;;;0.97;;
3704;SDS011;1868;48.918;9.438;2024-02-26T14:30:07;2.57;;;1.50;;
3704;SDS011;1868;48.918;9.438;2024-02-26T14:32:40;1.13;;;1.13;;
3704;SDS011;1868;48.918;9.438;2024-02-26T14:35:10;0.70;;;0.70;;
3704;SDS011;1868;48.918;9.438;2024-02-26T14:37:43;1.00;;;1.00;;
3704;SDS011;1868;48.918;9.438;2024-02-26T14:40:14;0.90;;;0.90;;
3704;SDS011;1868;48.918;9.438;2024-02-26T14:42:43;1.23;;;1.23;;
3704;SDS011;1868;48.918;9.438;2024-02-26T14:45:14;3.33;;;0.90;;
3704;SDS011;1868;48.918;9.438;2024-02-26T14:47:45;2.60;;;1.10;;
3704;SDS011;1868;48.918;9.438;2024-02-26T14:50:14;0.80;;;0.80;;
3704;SDS011;1868;48.918;9.438;2024-02-26T14:52:43;1.57;;;1.47;;
3704;SDS011;1868;48.918;9.438;2024-02-26T14:55:12;1.50;;;1.40;;
3704;SDS011;1868;48.918;9.438;2024-02-26T14:57:41;1.73;;;1.63;;
3704;SDS011;1868;48.918;9.438;2024-02-26T15:00:10;1.97;;;1.33;;
3704;SDS011;1868;48.918;9.438;2024-02-26T15:02:40;1.00;;;0.90;;
3704;SDS011;1868;48.918;9.438;2024-02-26T15:05:11;1.67;;;1.13;;
3704;SDS011;1868;48.918;9.438;2024-02-26T15:07:40;1.30;;;1.20;;
3704;SDS011;1868;48.918;9.438;2024-02-26T15:10:09;1.90;;;1.77;;
3704;SDS011;1868;48.918;9.438;2024-02-26T15:12:37;1.60;;;1.50;;
3704;SDS011;1868;48.918;9.438;2024-02-26T15:15:07;1.70;;;1.60;;
3704;SDS011;1868;48.918;9.438;2024-02-26T15:17:36;2.20;;;1.90;;
3704;SDS011;1868;48.918;9.438;2024-02-26T15:20:06;1.87;;;1.60;;
3704;SDS011;1868;48.918;9.438;2024-02-26T15:22:39;2.53;;;2.07;;
3704;SDS011;1868;48.918;9.438;2024-02-26T15:25:08;1.70;;;1.17;;
3704;SDS011;1868;48.918;9.438;2024-02-26T15:27:41;1.33;;;1.33;;
3704;SDS011;1868;48.918;9.438;2024-02-26T15:30:10;1.20;;;1.10;;
3704;SDS011;1868;48.918;9.438;2024-02-26T15:32:40;1.73;;;1.53;;